TNCC/CUR METAR and TAF weather

Enter ICAO airport designator
Station Type Date Time Source
TNCC METAR 2020/02/28 08:00 UTC NOAA

TNCC 280800Z 11010KT 9999 FEW019 26/22 Q1014 NOSIG


Station Type Date Time Source
TNCC Decoded METAR 2020/02/28 08:00 UTC NOAA

Hato Airport, Curacao, Netherlands Antilles (TNCC) 12-12N 068-58W 67M
Feb 28, 2020 - 03:00 AM EST / 2020.02.28 0800 UTC
Wind: from the ESE (110 degrees) at 12 MPH (10 KT):0
Visibility: greater than 7 mile(s):0
Sky conditions: mostly clear
Temperature: 78 F (26 C)
Dew Point: 71 F (22 C)
Relative Humidity: 78%
Pressure (altimeter): 29.94 in. Hg (1014 hPa)
ob: TNCC 280800Z 11010KT 9999 FEW019 26/22 Q1014 NOSIG
cycle: 8

Station Type Date Time Source
TNCC TAF 2020/02/28 12:24 UTC NOAA

TAF TAF TNCC 031115Z 0312/0412 11013KT 9999 FEW020

Example: see airport list